Time;durP1;ratioP1;P1;durP2;ratioP2;P2;SDS_P1;SDS_P2;PMS_P1;PMS_P2;Temp;Humidity;BMP_temperature;BMP_pressure;BME280_temperature;BME280_humidity;BME280_pressure;Samples;Min_cycle;Max_cycle;Signal;HPM_P1;HPM_P2
2020/02/03 00:02:42;;;;;;;0.92;0.92;;;;;;;18.73;43.09;100262.98;;;;-53
2020/02/03 00:05:41;;;;;;;0.79;0.79;;;;;;;18.73;43.06;100270.41;;;;-55
2020/02/03 00:08:41;;;;;;;0.82;0.82;;;;;;;18.72;43.07;100269.03;;;;-54
2020/02/03 00:11:41;;;;;;;1.07;0.91;;;;;;;18.71;43.12;100280.63;;;;-55
2020/02/03 00:14:41;;;;;;;0.70;0.70;;;;;;;18.71;43.09;100282.86;;;;-54
2020/02/03 00:17:41;;;;;;;0.80;0.80;;;;;;;18.70;43.10;100295.81;;;;-53
2020/02/03 00:20:41;;;;;;;0.85;0.84;;;;;;;18.70;43.12;100304.23;;;;-53
2020/02/03 00:23:41;;;;;;;0.87;0.87;;;;;;;18.69;43.13;100319.91;;;;-53
2020/02/03 00:26:41;;;;;;;0.98;0.87;;;;;;;18.68;43.11;100323.20;;;;-53
2020/02/03 00:29:41;;;;;;;0.93;0.91;;;;;;;18.68;43.11;100332.84;;;;-53
2020/02/03 00:32:41;;;;;;;0.81;0.81;;;;;;;18.67;43.15;100331.80;;;;-53
2020/02/03 00:35:41;;;;;;;0.92;0.89;;;;;;;18.66;43.13;100337.51;;;;-53
2020/02/03 00:38:41;;;;;;;0.81;0.81;;;;;;;18.65;43.14;100341.92;;;;-53
2020/02/03 00:42:41;;;;;;;0.77;0.77;;;;;;;18.64;43.14;100362.50;;;;-53
2020/02/03 00:45:41;;;;;;;0.81;0.80;;;;;;;18.64;43.15;100367.69;;;;-53
2020/02/03 00:51:54;;;;;;;0.93;0.93;;;;;;;18.63;43.16;100364.46;;;;-55
2020/02/03 00:54:44;;;;;;;1.09;0.99;;;;;;;18.62;43.19;100358.39;;;;-52
2020/02/03 00:57:41;;;;;;;0.80;0.80;;;;;;;18.61;43.18;100369.83;;;;-55
2020/02/03 01:00:42;;;;;;;1.07;0.97;;;;;;;18.61;43.19;100381.09;;;;-52
2020/02/03 01:03:41;;;;;;;0.90;0.90;;;;;;;18.60;43.16;100378.58;;;;-54
2020/02/03 01:06:41;;;;;;;0.80;0.80;;;;;;;18.60;43.13;100379.25;;;;-54
2020/02/03 01:09:41;;;;;;;0.90;0.90;;;;;;;18.59;43.19;100376.25;;;;-54
2020/02/03 01:12:41;;;;;;;0.72;0.72;;;;;;;18.58;43.17;100382.63;;;;-53
2020/02/03 01:15:41;;;;;;;0.68;0.68;;;;;;;18.58;43.18;100389.09;;;;-53
2020/02/03 01:18:41;;;;;;;0.91;0.90;;;;;;;18.57;43.18;100387.20;;;;-55
2020/02/03 01:21:48;;;;;;;0.95;0.83;;;;;;;18.57;43.21;100392.11;;;;-53
2020/02/03 01:25:18;;;;;;;1.09;0.91;;;;;;;18.57;43.20;100396.86;;;;-55
2020/02/03 01:28:41;;;;;;;0.80;0.80;;;;;;;18.55;43.22;100382.36;;;;-53
2020/02/03 01:31:41;;;;;;;0.86;0.86;;;;;;;18.55;43.22;100384.83;;;;-54
2020/02/03 01:34:41;;;;;;;1.08;0.97;;;;;;;18.55;43.22;100393.28;;;;-53
2020/02/03 01:37:41;;;;;;;1.10;1.00;;;;;;;18.54;43.24;100397.08;;;;-53
2020/02/03 01:40:41;;;;;;;0.82;0.82;;;;;;;18.53;43.27;100379.55;;;;-53
2020/02/03 01:43:41;;;;;;;0.80;0.80;;;;;;;18.53;43.19;100378.71;;;;-53
2020/02/03 01:46:41;;;;;;;0.90;0.81;;;;;;;18.52;43.22;100380.60;;;;-53
2020/02/03 01:49:41;;;;;;;0.83;0.83;;;;;;;18.52;43.24;100384.61;;;;-53
2020/02/03 01:52:41;;;;;;;0.91;0.89;;;;;;;18.50;43.26;100387.64;;;;-55
2020/02/03 01:55:41;;;;;;;0.89;0.89;;;;;;;18.50;43.25;100390.15;;;;-53
2020/02/03 01:58:41;;;;;;;0.87;0.87;;;;;;;18.49;43.24;100373.21;;;;-52
2020/02/03 02:01:41;;;;;;;0.87;0.87;;;;;;;18.50;43.27;100377.91;;;;-54
2020/02/03 02:05:41;;;;;;;1.17;0.99;;;;;;;18.48;43.25;100381.86;;;;-53
2020/02/03 02:09:41;;;;;;;1.03;0.89;;;;;;;18.48;43.27;100379.08;;;;-53
2020/02/03 02:12:41;;;;;;;0.83;0.81;;;;;;;18.47;43.23;100385.98;;;;-54
2020/02/03 02:15:41;;;;;;;0.80;0.80;;;;;;;18.46;43.26;100389.80;;;;-55
2020/02/03 02:18:41;;;;;;;0.92;0.92;;;;;;;18.46;43.28;100389.68;;;;-53
2020/02/03 02:21:41;;;;;;;0.90;0.90;;;;;;;18.46;43.29;100398.05;;;;-54
2020/02/03 02:24:41;;;;;;;0.78;0.78;;;;;;;18.45;43.26;100401.84;;;;-54
2020/02/03 02:29:42;;;;;;;0.94;0.91;;;;;;;18.43;43.27;100403.36;;;;-55
2020/02/03 02:32:41;;;;;;;0.93;0.92;;;;;;;18.43;43.28;100407.55;;;;-55
2020/02/03 02:35:41;;;;;;;0.80;0.80;;;;;;;18.43;43.31;100403.93;;;;-54
2020/02/03 02:39:13;;;;;;;0.90;0.90;;;;;;;18.42;43.29;100393.12;;;;-53
2020/02/03 02:43:41;;;;;;;1.20;0.98;;;;;;;18.42;43.28;100404.55;;;;-53
2020/02/03 02:46:41;;;;;;;1.01;0.95;;;;;;;18.41;43.30;100405.61;;;;-54
2020/02/03 02:49:41;;;;;;;0.83;0.83;;;;;;;18.42;43.30;100413.06;;;;-53
2020/02/03 02:52:45;;;;;;;0.95;0.93;;;;;;;18.41;43.30;100414.36;;;;-52
2020/02/03 02:55:46;;;;;;;1.07;0.95;;;;;;;18.40;43.28;100409.56;;;;-53
2020/02/03 02:58:41;;;;;;;0.91;0.91;;;;;;;18.39;43.31;100405.84;;;;-53
2020/02/03 03:01:41;;;;;;;0.86;0.86;;;;;;;18.39;43.30;100406.78;;;;-52
2020/02/03 03:05:41;;;;;;;0.87;0.87;;;;;;;18.38;43.31;100408.41;;;;-53
2020/02/03 03:08:41;;;;;;;0.93;0.93;;;;;;;18.38;43.31;100405.63;;;;-55
2020/02/03 03:11:41;;;;;;;0.94;0.94;;;;;;;18.37;43.32;100399.39;;;;-53
2020/02/03 03:14:41;;;;;;;1.40;0.90;;;;;;;18.36;43.30;100403.29;;;;-55
2020/02/03 03:17:41;;;;;;;0.80;0.80;;;;;;;18.36;43.34;100409.55;;;;-54
2020/02/03 03:20:41;;;;;;;0.88;0.86;;;;;;;18.36;43.31;100411.89;;;;-52
2020/02/03 03:23:41;;;;;;;0.75;0.75;;;;;;;18.35;43.32;100408.09;;;;-53
2020/02/03 03:26:41;;;;;;;0.89;0.89;;;;;;;18.35;43.33;100407.48;;;;-53
2020/02/03 03:29:41;;;;;;;0.71;0.71;;;;;;;18.34;43.38;100407.45;;;;-54
2020/02/03 03:32:45;;;;;;;1.05;0.86;;;;;;;18.34;43.33;100410.11;;;;-55
2020/02/03 03:35:46;;;;;;;0.82;0.82;;;;;;;18.34;43.33;100405.77;;;;-53
2020/02/03 03:38:41;;;;;;;0.78;0.78;;;;;;;18.33;43.37;100402.38;;;;-53
2020/02/03 03:41:41;;;;;;;0.90;0.90;;;;;;;18.33;43.30;100401.54;;;;-55
2020/02/03 03:44:46;;;;;;;0.99;0.91;;;;;;;18.33;43.34;100406.45;;;;-55
2020/02/03 03:47:46;;;;;;;0.87;0.86;;;;;;;18.32;43.34;100415.88;;;;-53
2020/02/03 03:50:41;;;;;;;0.75;0.75;;;;;;;18.32;43.33;100417.81;;;;-54
2020/02/03 03:53:41;;;;;;;0.95;0.95;;;;;;;18.32;43.33;100423.22;;;;-54
2020/02/03 03:56:41;;;;;;;1.47;0.89;;;;;;;18.31;43.34;100429.97;;;;-54
2020/02/03 03:59:41;;;;;;;0.80;0.80;;;;;;;18.30;43.36;100443.46;;;;-54
2020/02/03 04:02:41;;;;;;;1.05;0.97;;;;;;;18.31;43.29;100445.41;;;;-54
2020/02/03 04:05:41;;;;;;;0.87;0.87;;;;;;;18.31;43.32;100447.79;;;;-55
2020/02/03 04:08:41;;;;;;;0.80;0.80;;;;;;;18.32;43.27;100456.27;;;;-53
2020/02/03 04:11:41;;;;;;;0.83;0.83;;;;;;;18.33;43.26;100459.05;;;;-53
2020/02/03 04:14:41;;;;;;;0.81;0.79;;;;;;;18.34;43.21;100455.27;;;;-52
2020/02/03 04:17:41;;;;;;;0.92;0.92;;;;;;;18.36;43.17;100445.98;;;;-55
2020/02/03 04:20:41;;;;;;;0.79;0.79;;;;;;;18.39;43.22;100450.87;;;;-55
2020/02/03 04:23:41;;;;;;;0.79;0.79;;;;;;;18.41;43.10;100451.76;;;;-55
2020/02/03 04:26:41;;;;;;;0.80;0.80;;;;;;;18.44;43.13;100459.09;;;;-54
2020/02/03 04:29:41;;;;;;;0.75;0.75;;;;;;;18.48;43.15;100465.14;;;;-54
2020/02/03 04:32:41;;;;;;;0.91;0.91;;;;;;;18.53;43.10;100475.70;;;;-55
2020/02/03 04:35:41;;;;;;;0.86;0.86;;;;;;;18.55;43.11;100483.38;;;;-54
2020/02/03 04:38:41;;;;;;;0.95;0.89;;;;;;;18.60;43.02;100478.39;;;;-54
2020/02/03 04:41:41;;;;;;;0.97;0.88;;;;;;;18.64;43.13;100479.59;;;;-55
2020/02/03 04:44:41;;;;;;;0.85;0.85;;;;;;;18.68;43.27;100485.75;;;;-53
2020/02/03 04:47:41;;;;;;;0.84;0.84;;;;;;;18.70;43.33;100490.52;;;;-53
2020/02/03 04:50:41;;;;;;;0.95;0.93;;;;;;;18.75;43.40;100487.65;;;;-53
2020/02/03 04:53:41;;;;;;;0.76;0.76;;;;;;;18.76;43.17;100471.74;;;;-54
2020/02/03 04:56:41;;;;;;;0.97;0.91;;;;;;;18.80;43.27;100483.64;;;;-54
2020/02/03 04:59:41;;;;;;;0.72;0.72;;;;;;;18.83;43.12;100483.01;;;;-54
2020/02/03 05:02:41;;;;;;;0.89;0.89;;;;;;;18.86;43.21;100482.38;;;;-53
2020/02/03 05:05:41;;;;;;;0.80;0.80;;;;;;;18.89;43.18;100486.53;;;;-53
2020/02/03 05:08:41;;;;;;;0.89;0.89;;;;;;;18.92;43.28;100493.55;;;;-54
2020/02/03 05:11:41;;;;;;;0.79;0.79;;;;;;;18.92;43.16;100487.85;;;;-54
2020/02/03 05:14:41;;;;;;;0.83;0.83;;;;;;;18.94;43.30;100492.47;;;;-53
2020/02/03 05:17:42;;;;;;;0.79;0.79;;;;;;;18.97;43.31;100500.70;;;;-53
2020/02/03 05:20:41;;;;;;;0.85;0.85;;;;;;;18.97;43.15;100493.78;;;;-53
2020/02/03 05:23:41;;;;;;;0.85;0.85;;;;;;;18.98;43.24;100488.80;;;;-54
2020/02/03 05:26:41;;;;;;;0.85;0.85;;;;;;;18.99;43.07;100492.94;;;;-53
2020/02/03 05:29:41;;;;;;;0.77;0.77;;;;;;;19.00;43.12;100491.23;;;;-53
2020/02/03 05:32:41;;;;;;;0.80;0.80;;;;;;;19.00;43.17;100493.48;;;;-46
2020/02/03 05:35:41;;;;;;;0.71;0.71;;;;;;;19.01;43.12;100491.34;;;;-46
2020/02/03 05:38:41;;;;;;;0.85;0.80;;;;;;;19.00;43.14;100483.05;;;;-47
2020/02/03 05:41:41;;;;;;;0.88;0.88;;;;;;;19.01;43.24;100497.82;;;;-47
2020/02/03 05:44:41;;;;;;;1.14;0.80;;;;;;;19.00;43.25;100490.80;;;;-47
2020/02/03 05:47:41;;;;;;;0.90;0.87;;;;;;;19.01;43.20;100497.04;;;;-47
2020/02/03 05:50:41;;;;;;;0.93;0.93;;;;;;;19.01;43.18;100498.66;;;;-47
2020/02/03 05:53:41;;;;;;;0.75;0.75;;;;;;;19.01;43.11;100511.87;;;;-47
2020/02/03 05:56:41;;;;;;;0.67;0.67;;;;;;;19.01;43.10;100504.24;;;;-47
2020/02/03 05:59:41;;;;;;;0.87;0.87;;;;;;;19.01;43.08;100509.92;;;;-47
2020/02/03 06:02:41;;;;;;;0.87;0.87;;;;;;;19.00;43.12;100500.84;;;;-47
2020/02/03 06:05:41;;;;;;;1.11;0.79;;;;;;;19.01;43.08;100501.66;;;;-48
2020/02/03 06:08:41;;;;;;;0.73;0.73;;;;;;;19.00;43.11;100503.02;;;;-48
2020/02/03 06:11:41;;;;;;;0.87;0.87;;;;;;;19.00;43.04;100494.83;;;;-47
2020/02/03 06:14:41;;;;;;;0.80;0.80;;;;;;;19.00;43.02;100484.72;;;;-47
2020/02/03 06:17:41;;;;;;;1.05;0.95;;;;;;;19.00;42.96;100480.42;;;;-49
2020/02/03 06:20:41;;;;;;;1.07;0.99;;;;;;;18.99;43.02;100463.41;;;;-46
2020/02/03 06:23:41;;;;;;;0.93;0.89;;;;;;;18.99;42.99;100455.11;;;;-48
2020/02/03 06:26:41;;;;;;;1.86;0.91;;;;;;;19.00;43.09;100450.98;;;;-49
2020/02/03 06:29:41;;;;;;;2.18;0.95;;;;;;;19.02;43.49;100453.23;;;;-48
2020/02/03 06:32:41;;;;;;;1.28;0.89;;;;;;;19.04;43.57;100456.67;;;;-54
2020/02/03 06:35:41;;;;;;;1.18;0.81;;;;;;;19.06;43.66;100466.38;;;;-53
2020/02/03 06:38:41;;;;;;;1.11;0.93;;;;;;;19.10;43.90;100473.80;;;;-51
2020/02/03 06:41:42;;;;;;;1.07;0.92;;;;;;;19.15;43.92;100483.50;;;;-52
2020/02/03 06:44:41;;;;;;;0.80;0.80;;;;;;;19.20;43.87;100476.03;;;;-46
2020/02/03 06:47:41;;;;;;;0.87;0.87;;;;;;;19.25;43.84;100474.75;;;;-46
2020/02/03 06:50:41;;;;;;;0.90;0.90;;;;;;;19.30;43.90;100488.61;;;;-45
2020/02/03 06:53:41;;;;;;;0.78;0.78;;;;;;;19.34;43.73;100484.72;;;;-46
2020/02/03 07:01:41;;;;;;;1.64;0.92;;;;;;;19.42;43.11;100495.63;;;;-46
2020/02/03 07:04:42;;;;;;;1.55;0.88;;;;;;;19.45;43.43;100508.39;;;;-45
2020/02/03 07:07:41;;;;;;;3.16;0.92;;;;;;;19.49;43.64;100508.73;;;;-54
2020/02/03 07:10:41;;;;;;;1.44;0.90;;;;;;;19.54;43.85;100508.09;;;;-46
2020/02/03 07:13:41;;;;;;;1.06;0.96;;;;;;;19.56;43.67;100523.02;;;;-45
2020/02/03 07:16:41;;;;;;;1.12;0.98;;;;;;;19.58;43.65;100527.53;;;;-51
2020/02/03 07:19:41;;;;;;;1.10;1.00;;;;;;;19.62;43.85;100528.21;;;;-47
2020/02/03 07:22:41;;;;;;;1.80;0.97;;;;;;;19.64;44.12;100515.97;;;;-48
2020/02/03 07:25:41;;;;;;;1.12;0.93;;;;;;;19.66;43.58;100520.85;;;;-51
2020/02/03 07:28:41;;;;;;;2.25;1.00;;;;;;;19.69;43.91;100532.78;;;;-45
2020/02/03 07:31:41;;;;;;;2.06;0.97;;;;;;;19.71;43.58;100533.10;;;;-56
2020/02/03 07:34:41;;;;;;;6.59;1.09;;;;;;;19.76;43.64;100545.44;;;;-56
2020/02/03 07:37:41;;;;;;;0.92;0.92;;;;;;;19.80;43.94;100552.48;;;;-46
2020/02/03 07:40:41;;;;;;;1.47;0.93;;;;;;;19.83;43.76;100537.37;;;;-49
2020/02/03 07:43:41;;;;;;;1.67;0.91;;;;;;;19.85;43.35;100545.67;;;;-50
2020/02/03 07:46:41;;;;;;;1.06;0.95;;;;;;;19.89;43.95;100549.42;;;;-45
2020/02/03 07:49:48;;;;;;;0.92;0.91;;;;;;;19.92;43.97;100546.67;;;;-48
2020/02/03 07:52:42;;;;;;;1.43;0.94;;;;;;;19.95;43.86;100538.53;;;;-46
2020/02/03 07:55:41;;;;;;;1.87;1.06;;;;;;;19.95;43.40;100528.47;;;;-51
2020/02/03 07:58:41;;;;;;;1.00;0.96;;;;;;;19.99;43.83;100526.50;;;;-49
2020/02/03 08:01:41;;;;;;;1.05;0.93;;;;;;;20.02;43.46;100532.06;;;;-51
2020/02/03 08:04:41;;;;;;;1.12;1.02;;;;;;;20.01;43.22;100539.50;;;;-48
2020/02/03 08:07:41;;;;;;;0.93;0.91;;;;;;;20.02;43.22;100554.80;;;;-47
2020/02/03 08:10:41;;;;;;;1.45;1.00;;;;;;;20.02;43.70;100546.02;;;;-47
2020/02/03 08:13:41;;;;;;;1.69;1.04;;;;;;;20.04;43.52;100547.41;;;;-47
2020/02/03 08:16:41;;;;;;;1.49;0.99;;;;;;;20.05;43.81;100548.66;;;;-47
2020/02/03 08:19:41;;;;;;;2.05;0.83;;;;;;;20.07;43.90;100553.00;;;;-49
2020/02/03 08:22:41;;;;;;;2.25;1.09;;;;;;;20.09;43.93;100557.69;;;;-48
2020/02/03 08:25:41;;;;;;;6.05;1.36;;;;;;;20.11;44.01;100567.83;;;;-49
2020/02/03 08:28:41;;;;;;;7.31;1.10;;;;;;;20.12;43.82;100562.84;;;;-45
2020/02/03 08:31:41;;;;;;;3.49;1.22;;;;;;;20.12;43.81;100552.45;;;;-44
2020/02/03 08:34:41;;;;;;;1.45;1.00;;;;;;;20.14;43.91;100550.36;;;;-46
2020/02/03 08:37:41;;;;;;;2.07;1.04;;;;;;;20.14;43.74;100558.34;;;;-48
2020/02/03 08:40:41;;;;;;;1.49;1.03;;;;;;;20.14;43.28;100558.50;;;;-48
2020/02/03 08:43:41;;;;;;;1.31;0.94;;;;;;;20.16;43.89;100580.63;;;;-47
2020/02/03 08:46:41;;;;;;;2.57;1.13;;;;;;;20.16;43.58;100568.89;;;;-49
2020/02/03 08:49:41;;;;;;;1.92;1.02;;;;;;;20.17;43.77;100573.39;;;;-64
2020/02/03 08:59:04;;;;;;;2.15;0.99;;;;;;;20.14;42.83;100565.72;;;;-56
2020/02/03 09:01:46;;;;;;;1.83;1.27;;;;;;;20.14;42.81;100561.08;;;;-56
2020/02/03 09:04:42;;;;;;;1.41;1.00;;;;;;;20.14;43.28;100561.52;;;;-53
2020/02/03 09:07:41;;;;;;;2.37;1.00;;;;;;;20.13;43.25;100577.08;;;;-57
2020/02/03 09:10:41;;;;;;;2.16;1.04;;;;;;;20.15;43.20;100600.37;;;;-63
2020/02/03 09:13:41;;;;;;;1.51;1.11;;;;;;;20.15;43.07;100604.99;;;;-59
2020/02/03 09:16:41;;;;;;;2.23;1.09;;;;;;;20.15;43.10;100616.90;;;;-61
2020/02/03 09:19:41;;;;;;;1.16;0.89;;;;;;;20.16;43.00;100612.66;;;;-60
2020/02/03 09:22:41;;;;;;;3.97;1.09;;;;;;;20.18;43.58;100599.89;;;;-59
2020/02/03 09:25:41;;;;;;;2.24;1.00;;;;;;;20.19;43.51;100595.67;;;;-57
2020/02/03 09:28:41;;;;;;;1.17;0.89;;;;;;;20.20;43.13;100598.30;;;;-53
2020/02/03 09:31:41;;;;;;;3.11;1.06;;;;;;;20.22;43.59;100616.17;;;;-53
2020/02/03 09:34:41;;;;;;;1.29;0.95;;;;;;;20.24;43.38;100635.94;;;;-56
2020/02/03 09:37:41;;;;;;;1.60;1.07;;;;;;;20.26;43.02;100643.52;;;;-62
2020/02/03 09:40:41;;;;;;;1.14;1.04;;;;;;;20.27;42.98;100630.47;;;;-58
2020/02/03 09:43:41;;;;;;;1.53;1.03;;;;;;;20.28;43.17;100627.77;;;;-59
2020/02/03 09:46:41;;;;;;;1.97;1.12;;;;;;;20.29;43.04;100632.07;;;;-56
2020/02/03 09:49:41;;;;;;;1.01;1.01;;;;;;;20.33;43.64;100639.23;;;;-51
2020/02/03 09:52:41;;;;;;;1.23;1.03;;;;;;;20.32;43.30;100650.09;;;;-51
2020/02/03 09:55:41;;;;;;;1.66;0.93;;;;;;;20.31;43.04;100647.02;;;;-51
2020/02/03 09:58:41;;;;;;;1.28;0.95;;;;;;;20.30;43.12;100652.41;;;;-51
2020/02/03 10:01:41;;;;;;;1.13;1.05;;;;;;;20.29;43.10;100666.02;;;;-51
2020/02/03 10:04:41;;;;;;;1.37;1.03;;;;;;;20.28;42.92;100673.89;;;;-51
2020/02/03 10:07:41;;;;;;;2.43;1.06;;;;;;;20.27;42.93;100669.11;;;;-51
2020/02/03 10:10:41;;;;;;;0.91;0.87;;;;;;;20.27;42.98;100681.13;;;;-51
2020/02/03 10:13:41;;;;;;;1.27;1.03;;;;;;;20.26;42.97;100697.39;;;;-51
2020/02/03 10:16:41;;;;;;;1.37;1.06;;;;;;;20.25;42.90;100704.85;;;;-51
2020/02/03 10:19:41;;;;;;;1.18;1.00;;;;;;;20.24;42.92;100705.34;;;;-51
2020/02/03 10:22:41;;;;;;;0.89;0.83;;;;;;;20.24;42.84;100698.27;;;;-51
2020/02/03 10:25:41;;;;;;;2.41;0.90;;;;;;;20.23;42.77;100690.27;;;;-52
2020/02/03 10:28:41;;;;;;;1.18;0.89;;;;;;;20.21;42.80;100692.30;;;;-51
2020/02/03 10:31:41;;;;;;;2.18;0.83;;;;;;;20.21;42.84;100683.20;;;;-51
2020/02/03 10:34:41;;;;;;;1.41;0.95;;;;;;;20.20;42.82;100690.07;;;;-51
2020/02/03 10:37:41;;;;;;;1.73;0.79;;;;;;;20.21;42.83;100696.05;;;;-51
2020/02/03 10:40:41;;;;;;;0.95;0.83;;;;;;;20.20;42.79;100691.37;;;;-51
2020/02/03 10:43:41;;;;;;;0.90;0.90;;;;;;;20.19;42.77;100692.10;;;;-52
2020/02/03 10:46:41;;;;;;;0.92;0.87;;;;;;;20.19;42.73;100690.09;;;;-51
2020/02/03 10:49:41;;;;;;;1.84;0.90;;;;;;;20.19;42.74;100688.65;;;;-51
2020/02/03 10:52:41;;;;;;;0.89;0.89;;;;;;;20.18;42.69;100680.72;;;;-51
2020/02/03 10:55:41;;;;;;;0.93;0.85;;;;;;;20.18;42.72;100690.21;;;;-51
2020/02/03 10:58:41;;;;;;;1.36;0.90;;;;;;;20.17;42.71;100679.70;;;;-50
2020/02/03 11:01:41;;;;;;;1.13;0.89;;;;;;;20.17;42.71;100674.06;;;;-51
2020/02/03 11:04:41;;;;;;;3.01;1.00;;;;;;;20.10;43.04;100674.25;;;;-50
2020/02/03 11:07:41;;;;;;;2.17;1.17;;;;;;;19.92;43.83;100678.47;;;;-47
2020/02/03 11:10:41;;;;;;;1.22;1.11;;;;;;;19.76;44.36;100662.63;;;;-48
2020/02/03 11:13:43;;;;;;;1.28;1.09;;;;;;;19.66;44.69;100659.98;;;;-46
2020/02/03 11:20:07;;;;;;;2.07;1.40;;;;;;;19.53;45.04;100651.36;;;;-45
2020/02/03 11:22:41;;;;;;;2.81;1.30;;;;;;;19.46;45.35;100642.33;;;;-51
2020/02/03 11:25:41;;;;;;;2.39;1.40;;;;;;;19.40;45.34;100629.38;;;;-45
2020/02/03 11:28:41;;;;;;;1.51;1.09;;;;;;;19.36;45.54;100622.70;;;;-45
2020/02/03 11:31:41;;;;;;;1.91;1.31;;;;;;;19.30;45.61;100619.63;;;;-49
2020/02/03 11:34:41;;;;;;;3.89;1.25;;;;;;;19.26;45.83;100627.17;;;;-52
2020/02/03 11:37:41;;;;;;;2.93;1.26;;;;;;;19.25;45.72;100633.31;;;;-51
2020/02/03 11:40:41;;;;;;;2.73;1.20;;;;;;;19.18;45.77;100630.14;;;;-51
2020/02/03 11:43:41;;;;;;;1.41;1.19;;;;;;;19.21;45.58;100633.80;;;;-53
2020/02/03 11:46:41;;;;;;;3.76;1.31;;;;;;;19.34;45.18;100640.34;;;;-52
2020/02/03 11:49:41;;;;;;;2.47;1.39;;;;;;;19.41;44.96;100645.50;;;;-51
2020/02/03 11:52:41;;;;;;;1.62;1.30;;;;;;;19.47;44.57;100636.61;;;;-51
2020/02/03 11:55:41;;;;;;;1.99;1.25;;;;;;;19.51;44.33;100630.44;;;;-51
2020/02/03 11:58:41;;;;;;;1.88;1.31;;;;;;;19.55;44.23;100633.27;;;;-52
2020/02/03 12:01:47;;;;;;;1.35;1.15;;;;;;;19.58;44.07;100632.34;;;;-51
2020/02/03 12:04:41;;;;;;;1.31;1.21;;;;;;;19.62;44.02;100628.67;;;;-51
2020/02/03 12:07:41;;;;;;;1.59;1.30;;;;;;;19.64;43.89;100614.82;;;;-51
2020/02/03 12:10:41;;;;;;;1.53;1.30;;;;;;;19.67;43.84;100634.27;;;;-52
2020/02/03 12:13:41;;;;;;;3.56;1.21;;;;;;;19.70;43.77;100634.59;;;;-53
2020/02/03 12:16:41;;;;;;;1.93;1.16;;;;;;;19.72;43.66;100636.47;;;;-51
2020/02/03 12:19:41;;;;;;;1.20;1.10;;;;;;;19.74;43.63;100640.02;;;;-51
2020/02/03 12:22:41;;;;;;;1.27;1.17;;;;;;;19.77;43.62;100640.49;;;;-52
2020/02/03 12:25:41;;;;;;;1.30;1.20;;;;;;;19.79;43.75;100641.27;;;;-51
2020/02/03 12:28:41;;;;;;;1.74;1.10;;;;;;;19.82;43.60;100638.11;;;;-52
2020/02/03 12:31:41;;;;;;;1.99;1.40;;;;;;;19.89;44.46;100642.69;;;;-49
2020/02/03 12:37:06;;;;;;;2.52;1.21;;;;;;;19.94;43.67;100635.88;;;;-47
2020/02/03 12:40:06;;;;;;;2.13;1.17;;;;;;;19.94;43.57;100629.17;;;;-48
2020/02/03 12:43:06;;;;;;;1.86;1.10;;;;;;;19.94;43.58;100623.01;;;;-51
2020/02/03 12:46:06;;;;;;;1.97;1.25;;;;;;;19.95;43.49;100624.02;;;;-51
2020/02/03 12:49:07;;;;;;;1.64;1.12;;;;;;;19.95;43.37;100622.07;;;;-51
2020/02/03 12:55:33;;;;;;;2.95;1.20;;;;;;;19.99;43.71;100617.63;;;;-55
2020/02/03 12:58:17;;;;;;;2.65;1.30;;;;;;;20.00;43.91;100614.32;;;;-51
2020/02/03 13:02:06;;;;;;;2.36;1.10;;;;;;;20.02;43.99;100610.13;;;;-55
2020/02/03 13:05:31;;;;;;;2.13;1.12;;;;;;;20.04;43.89;100609.47;;;;-56
2020/02/03 13:13:13;;;;;;;1.38;1.14;;;;;;;20.08;43.87;100618.44;;;;-52
2020/02/03 13:16:25;;;;;;;2.57;1.12;;;;;;;20.09;43.82;100622.16;;;;-58
2020/02/03 13:20:32;;;;;;;2.26;1.22;;;;;;;20.12;44.10;100608.95;;;;-52
2020/02/03 13:23:17;;;;;;;2.61;1.13;;;;;;;20.11;43.60;100611.77;;;;-52
2020/02/03 13:26:15;;;;;;;1.62;1.05;;;;;;;20.11;43.50;100610.02;;;;-52
2020/02/03 13:35:06;;;;;;;1.69;1.20;;;;;;;20.11;43.88;100605.82;;;;-52
2020/02/03 13:38:06;;;;;;;1.29;1.09;;;;;;;20.10;44.02;100596.39;;;;-50
2020/02/03 13:41:06;;;;;;;3.71;1.06;;;;;;;20.12;44.23;100594.03;;;;-52
2020/02/03 13:44:06;;;;;;;2.23;1.29;;;;;;;20.13;44.12;100586.36;;;;-50
2020/02/03 13:47:06;;;;;;;1.77;1.15;;;;;;;20.14;43.93;100577.29;;;;-61
2020/02/03 13:50:06;;;;;;;3.88;1.24;;;;;;;20.13;44.21;100574.62;;;;-50
2020/02/03 13:53:06;;;;;;;3.25;1.10;;;;;;;20.15;44.08;100575.55;;;;-47
2020/02/03 13:56:06;;;;;;;4.45;1.20;;;;;;;20.15;44.00;100578.40;;;;-55
2020/02/03 13:59:06;;;;;;;3.05;1.21;;;;;;;20.18;43.87;100579.20;;;;-51
2020/02/03 14:02:24;;;;;;;2.93;1.18;;;;;;;20.19;43.97;100577.23;;;;-51
2020/02/03 14:05:06;;;;;;;2.10;1.20;;;;;;;20.23;44.12;100577.57;;;;-58
2020/02/03 14:08:06;;;;;;;1.26;1.04;;;;;;;20.26;44.05;100585.15;;;;-53
2020/02/03 14:11:06;;;;;;;4.27;1.21;;;;;;;20.31;43.98;100587.98;;;;-52
2020/02/03 14:14:06;;;;;;;3.01;1.11;;;;;;;20.35;44.55;100592.08;;;;-49
2020/02/03 14:17:07;;;;;;;4.01;1.24;;;;;;;20.39;44.02;100595.55;;;;-60
2020/02/03 14:20:06;;;;;;;4.40;1.29;;;;;;;20.43;44.26;100592.70;;;;-50
2020/02/03 14:23:06;;;;;;;5.83;1.51;;;;;;;20.54;46.03;100572.19;;;;-54
2020/02/03 14:26:06;;;;;;;8.11;1.53;;;;;;;20.55;44.40;100569.95;;;;-50
2020/02/03 14:29:06;;;;;;;4.63;1.45;;;;;;;20.59;44.33;100573.38;;;;-52
2020/02/03 14:32:06;;;;;;;7.77;1.29;;;;;;;20.64;44.41;100567.09;;;;-55
2020/02/03 14:35:06;;;;;;;4.93;1.21;;;;;;;20.63;44.28;100555.42;;;;-55
2020/02/03 14:38:06;;;;;;;6.27;1.35;;;;;;;20.67;44.37;100548.70;;;;-55
2020/02/03 14:41:06;;;;;;;5.65;1.25;;;;;;;20.67;43.85;100540.14;;;;-51
2020/02/03 14:44:06;;;;;;;3.85;1.28;;;;;;;20.66;44.04;100543.79;;;;-64
2020/02/03 14:47:06;;;;;;;3.72;1.23;;;;;;;20.65;44.21;100545.43;;;;-53
2020/02/03 14:50:06;;;;;;;5.61;1.30;;;;;;;20.64;44.02;100549.25;;;;-51
2020/02/03 14:53:06;;;;;;;5.19;1.17;;;;;;;20.65;43.97;100554.55;;;;-54
2020/02/03 14:56:06;;;;;;;2.72;1.12;;;;;;;20.65;44.01;100556.33;;;;-53
2020/02/03 14:59:06;;;;;;;1.50;1.01;;;;;;;20.64;43.88;100546.63;;;;-49
2020/02/03 15:02:06;;;;;;;4.45;1.29;;;;;;;20.64;43.87;100546.56;;;;-51
2020/02/03 15:05:11;;;;;;;2.27;1.28;;;;;;;20.65;43.55;100543.41;;;;-50
2020/02/03 15:08:54;;;;;;;3.71;1.02;;;;;;;20.64;43.52;100533.54;;;;-57
2020/02/03 15:12:26;;;;;;;1.65;1.27;;;;;;;20.66;43.78;100533.28;;;;-57
2020/02/03 15:15:06;;;;;;;2.48;1.27;;;;;;;20.68;43.61;100535.21;;;;-57
2020/02/03 15:18:06;;;;;;;1.81;1.23;;;;;;;20.68;43.73;100528.94;;;;-57
2020/02/03 15:21:06;;;;;;;4.49;1.29;;;;;;;20.68;43.74;100531.52;;;;-56
2020/02/03 15:24:06;;;;;;;2.26;1.35;;;;;;;20.70;43.69;100537.64;;;;-61
2020/02/03 15:27:06;;;;;;;1.63;1.08;;;;;;;20.71;43.51;100537.95;;;;-55
2020/02/03 15:30:06;;;;;;;2.79;1.34;;;;;;;20.72;43.84;100528.39;;;;-60
2020/02/03 15:33:06;;;;;;;2.79;1.20;;;;;;;20.75;44.00;100535.09;;;;-54
2020/02/03 15:36:06;;;;;;;5.19;1.42;;;;;;;20.77;44.08;100538.94;;;;-58
2020/02/03 15:39:06;;;;;;;6.45;1.37;;;;;;;20.75;43.66;100525.02;;;;-53
2020/02/03 15:42:06;;;;;;;6.57;1.35;;;;;;;20.78;44.12;100531.36;;;;-60
2020/02/03 15:45:06;;;;;;;7.80;1.29;;;;;;;20.78;43.66;100537.23;;;;-52
2020/02/03 15:48:06;;;;;;;5.40;1.55;;;;;;;20.79;44.04;100536.44;;;;-56
2020/02/03 15:51:06;;;;;;;5.12;1.35;;;;;;;20.79;43.92;100535.72;;;;-55
2020/02/03 15:54:06;;;;;;;3.41;1.19;;;;;;;20.79;43.87;100526.87;;;;-50
2020/02/03 15:57:06;;;;;;;4.87;1.21;;;;;;;20.79;43.82;100524.08;;;;-51
2020/02/03 16:00:06;;;;;;;5.54;1.43;;;;;;;20.80;43.83;100521.23;;;;-51
2020/02/03 16:03:06;;;;;;;2.92;1.29;;;;;;;20.82;43.71;100516.98;;;;-50
2020/02/03 16:06:06;;;;;;;2.11;1.30;;;;;;;20.83;43.83;100516.45;;;;-52
2020/02/03 16:09:06;;;;;;;2.65;1.30;;;;;;;20.81;43.52;100511.27;;;;-56
2020/02/03 16:12:06;;;;;;;1.96;1.29;;;;;;;20.83;43.87;100500.88;;;;-53
2020/02/03 16:15:06;;;;;;;4.27;1.34;;;;;;;20.85;43.70;100502.93;;;;-57
2020/02/03 16:18:06;;;;;;;2.69;1.42;;;;;;;20.86;43.45;100505.70;;;;-52
2020/02/03 16:21:06;;;;;;;3.67;1.31;;;;;;;20.88;43.48;100507.34;;;;-59
2020/02/03 16:24:06;;;;;;;4.90;1.20;;;;;;;20.90;43.60;100496.75;;;;-51
2020/02/03 16:27:06;;;;;;;3.25;1.20;;;;;;;20.91;43.53;100483.86;;;;-58
2020/02/03 16:30:06;;;;;;;4.56;1.23;;;;;;;20.92;43.24;100482.49;;;;-52
2020/02/03 16:33:06;;;;;;;2.09;1.18;;;;;;;20.94;43.68;100478.38;;;;-53
2020/02/03 16:36:06;;;;;;;4.25;1.28;;;;;;;20.94;43.30;100467.97;;;;-51
2020/02/03 16:39:06;;;;;;;1.21;1.10;;;;;;;20.96;43.71;100459.98;;;;-60
2020/02/03 16:42:06;;;;;;;3.27;1.17;;;;;;;20.97;43.40;100462.50;;;;-53
2020/02/03 16:45:06;;;;;;;1.83;1.14;;;;;;;20.98;43.36;100453.75;;;;-51
2020/02/03 16:48:06;;;;;;;2.91;1.21;;;;;;;20.99;43.32;100462.08;;;;-62
2020/02/03 16:51:06;;;;;;;3.91;1.18;;;;;;;20.99;43.60;100466.31;;;;-52
2020/02/03 16:54:06;;;;;;;2.20;1.29;;;;;;;20.98;43.24;100459.12;;;;-52
2020/02/03 16:57:06;;;;;;;2.67;1.19;;;;;;;20.98;43.20;100462.64;;;;-52
2020/02/03 17:00:06;;;;;;;2.00;1.19;;;;;;;20.96;43.02;100466.03;;;;-53
2020/02/03 17:03:06;;;;;;;2.16;1.31;;;;;;;20.96;43.10;100460.72;;;;-52
2020/02/03 17:06:06;;;;;;;2.39;1.25;;;;;;;20.94;43.08;100460.31;;;;-53
2020/02/03 17:09:08;;;;;;;4.06;1.23;;;;;;;20.94;43.15;100463.16;;;;-59
2020/02/03 17:12:06;;;;;;;3.00;1.19;;;;;;;20.94;43.54;100455.20;;;;-59
2020/02/03 17:15:06;;;;;;;1.84;1.19;;;;;;;20.96;43.59;100456.96;;;;-53
2020/02/03 17:18:06;;;;;;;5.87;1.35;;;;;;;20.98;43.53;100460.46;;;;-58
2020/02/03 17:21:06;;;;;;;2.35;1.10;;;;;;;20.99;43.76;100459.99;;;;-56
2020/02/03 17:24:06;;;;;;;3.59;1.27;;;;;;;21.00;43.85;100453.31;;;;-62
2020/02/03 17:27:06;;;;;;;5.79;1.34;;;;;;;21.05;43.78;100452.80;;;;-57
2020/02/03 17:30:06;;;;;;;4.46;1.29;;;;;;;21.06;43.89;100458.08;;;;-55